Air Resources Laboratory banner image
Air Resources Laboratory web site National Oceanic and Atmospheric Administration (NOAA)

dc metar


KDCA 141852Z 35015KT 10SM SCT060 BKN250 05/M09 A2991 RMK AO2 SLP129 T00501089=